Terminal Aerodrome Forecast
Issued by NWS Burlington, VT

Home | Current Version | Previous Version | Text Only | Print | Product List | Glossary On
Versions: 1 2 3 4 5 6 7 8 9 10 11 12 13 14 15
190
FTUS41 KBTV 232320
TAFBTV
TAF
KBTV 232320Z 2400/2424 21006KT P6SM SKC
     FM240400 28004KT P6SM SCT200
     FM240700 34005KT P6SM BKN025
     FM240900 34005KT P6SM BKN150=

USA.gov is the U.S. government's official web portal to all federal, state and local government web resources and services.